Time;durP1;ratioP1;P1;durP2;ratioP2;P2;SDS_P1;SDS_P2;PMS_P1;PMS_P2;Temp;Humidity;BMP_temperature;BMP_pressure;BME280_temperature;BME280_humidity;BME280_pressure;Samples;Min_cycle;Max_cycle;Signal;HPM_P1;HPM_P2
2021/11/21 00:01:19;;;;;;;6.12;3.70;;;;;;;10.22;77.53;100218.68;1744632;82;21058;-73
2021/11/21 00:03:46;;;;;;;4.58;3.47;;;;;;;10.24;77.45;100224.85;1744970;81;21058;-72
2021/11/21 00:06:14;;;;;;;6.47;3.70;;;;;;;10.24;77.34;100214.33;1744832;82;21618;-73
2021/11/21 00:08:41;;;;;;;5.92;2.83;;;;;;;10.24;77.19;100213.45;1744821;82;21581;-72
2021/11/21 00:11:07;;;;;;;5.10;3.25;;;;;;;10.23;77.11;100211.27;1744809;82;21757;-73
2021/11/21 00:13:34;;;;;;;7.75;3.30;;;;;;;10.24;77.00;100210.38;1744862;82;21032;-73
2021/11/21 00:16:01;;;;;;;6.00;3.02;;;;;;;10.24;76.79;100212.14;1744789;82;21059;-73
2021/11/21 00:18:27;;;;;;;5.97;2.85;;;;;;;10.22;76.60;100202.90;1744654;81;21359;-72
2021/11/21 00:20:54;;;;;;;3.35;2.50;;;;;;;10.21;76.41;100205.09;1744859;82;21075;-72
2021/11/21 00:23:22;;;;;;;5.67;2.58;;;;;;;10.20;76.32;100201.98;1744681;82;22589;-73
2021/11/21 00:25:49;;;;;;;9.60;3.70;;;;;;;10.19;76.21;100201.55;1744730;82;22342;-73
2021/11/21 00:28:16;;;;;;;3.65;2.00;;;;;;;10.15;75.92;100203.64;1744913;82;21576;-73
2021/11/21 00:30:43;;;;;;;5.28;2.27;;;;;;;10.12;75.74;100203.17;1745002;82;21052;-73
2021/11/21 00:33:10;;;;;;;3.87;2.10;;;;;;;10.10;75.75;100204.02;1744930;82;21122;-73
2021/11/21 00:35:36;;;;;;;4.92;2.12;;;;;;;10.07;75.58;100200.88;1744842;82;22363;-73
2021/11/21 00:38:03;;;;;;;4.70;2.33;;;;;;;10.04;75.50;100201.25;1745185;82;21110;-72
2021/11/21 00:40:30;;;;;;;3.95;2.17;;;;;;;10.01;75.44;100194.64;1745102;82;21082;-73
2021/11/21 00:43:00;;;;;;;4.67;1.98;;;;;;;9.98;75.43;100201.14;1744816;82;21078;-73
2021/11/21 00:45:27;;;;;;;6.53;2.10;;;;;;;9.95;75.29;100201.08;1744449;82;22243;-73
2021/11/21 00:47:55;;;;;;;7.12;2.55;;;;;;;9.91;75.35;100196.22;1744718;82;21797;-73
2021/11/21 00:50:31;;;;;;;6.35;1.72;;;;;;;9.88;75.31;100181.69;1744536;81;21098;-73
2021/11/21 00:53:02;;;;;;;6.35;2.30;;;;;;;9.88;75.28;100190.89;1743304;81;21097;-74
2021/11/21 00:55:39;;;;;;;5.08;1.92;;;;;;;9.86;75.26;100185.59;1743162;82;21066;-74
2021/11/21 00:58:10;;;;;;;5.50;1.82;;;;;;;9.88;75.27;100187.83;1744827;81;21068;-73
2021/11/21 01:00:38;;;;;;;5.70;2.30;;;;;;;9.90;75.18;100194.44;1744783;81;21801;-73
2021/11/21 01:03:07;;;;;;;3.98;2.37;;;;;;;9.91;75.20;100191.84;1744707;82;21652;-73
2021/11/21 01:05:33;;;;;;;7.35;2.00;;;;;;;9.91;75.12;100193.16;1744738;82;21090;-72
2021/11/21 01:08:00;;;;;;;4.62;1.82;;;;;;;9.90;75.02;100193.12;1744787;82;21120;-71
2021/11/21 01:10:27;;;;;;;9.00;2.55;;;;;;;9.90;75.04;100183.91;1744895;82;21113;-71
2021/11/21 01:12:54;;;;;;;6.28;2.42;;;;;;;9.89;74.98;100192.23;1744824;82;21739;-71
2021/11/21 01:15:22;;;;;;;4.97;2.10;;;;;;;9.88;75.00;100178.63;1744573;82;21083;-71
2021/11/21 01:17:50;;;;;;;4.90;1.87;;;;;;;9.87;74.97;100182.13;1744671;82;21078;-72
2021/11/21 01:20:17;;;;;;;3.75;2.50;;;;;;;9.87;74.96;100175.96;1744539;82;21075;-72
2021/11/21 01:22:43;;;;;;;5.08;2.17;;;;;;;9.88;75.01;100180.38;1744766;82;21098;-72
2021/11/21 01:25:11;;;;;;;6.90;2.15;;;;;;;9.88;74.93;100173.80;1744604;82;22393;-72
2021/11/21 01:27:39;;;;;;;6.08;2.15;;;;;;;9.90;75.01;100170.77;1744679;82;21097;-72
2021/11/21 01:30:09;;;;;;;8.15;2.35;;;;;;;9.90;74.95;100157.62;1744651;82;21118;-72
2021/11/21 01:32:35;;;;;;;7.78;2.40;;;;;;;9.91;75.00;100160.29;1744631;82;21047;-72
2021/11/21 01:35:02;;;;;;;8.75;2.58;;;;;;;9.96;75.02;100156.85;1744700;82;21126;-72
2021/11/21 01:37:29;;;;;;;4.45;2.42;;;;;;;9.96;74.96;100151.59;1744811;82;21780;-72
2021/11/21 01:39:56;;;;;;;8.18;2.33;;;;;;;9.97;74.99;100154.26;1744949;82;21052;-72
2021/11/21 01:42:23;;;;;;;8.18;2.75;;;;;;;9.99;74.98;100147.72;1744643;82;21074;-72
2021/11/21 01:44:52;;;;;;;6.60;2.35;;;;;;;10.00;74.92;100137.20;1744694;82;21063;-72
2021/11/21 01:47:19;;;;;;;8.90;2.60;;;;;;;10.00;74.96;100137.64;1722816;81;21085;-72
2021/11/21 01:49:46;;;;;;;7.28;2.37;;;;;;;9.99;74.96;100130.19;1720464;82;21860;-71
2021/11/21 01:52:12;;;;;;;8.23;2.70;;;;;;;9.99;74.91;100135.89;1720508;83;21101;-71
2021/11/21 01:54:39;;;;;;;6.17;2.10;;;;;;;9.98;74.91;100129.72;1720584;83;21528;-71
2021/11/21 01:57:06;;;;;;;8.33;2.50;;;;;;;9.98;74.95;100123.58;1720551;83;21074;-72
2021/11/21 01:59:33;;;;;;;6.17;2.45;;;;;;;9.97;74.92;100116.57;1720439;83;21065;-72
2021/11/21 02:01:59;;;;;;;6.65;2.47;;;;;;;9.98;74.94;100110.00;1691949;83;21781;-72
2021/11/21 02:04:26;;;;;;;5.70;2.42;;;;;;;9.98;74.98;100110.44;1720285;83;21086;-72
2021/11/21 02:06:53;;;;;;;6.80;2.55;;;;;;;9.98;74.97;100108.69;1720255;83;21563;-72
2021/11/21 02:09:19;;;;;;;8.43;2.27;;;;;;;9.97;74.99;100101.67;1720129;83;21090;-72
2021/11/21 02:11:46;;;;;;;5.37;2.27;;;;;;;9.98;74.99;100102.11;1720304;83;21105;-72
2021/11/21 02:14:13;;;;;;;4.08;2.00;;;;;;;9.99;74.99;100106.52;1720199;83;21741;-71
2021/11/21 02:16:39;;;;;;;6.20;2.08;;;;;;;10.00;75.00;100108.28;1720151;83;21007;-72
2021/11/21 02:19:06;;;;;;;3.70;2.33;;;;;;;10.00;75.02;100105.65;1720144;82;21108;-72
2021/11/21 02:21:33;;;;;;;5.08;2.47;;;;;;;9.99;75.03;100091.19;1720146;83;21070;-72
2021/11/21 02:23:59;;;;;;;6.03;2.45;;;;;;;9.99;75.10;100082.86;1720128;82;21631;-72
2021/11/21 02:26:26;;;;;;;6.83;2.65;;;;;;;9.99;75.10;100083.30;1720456;83;21749;-72
2021/11/21 02:28:53;;;;;;;5.58;2.42;;;;;;;9.97;75.14;100083.71;1720132;83;21078;-72
2021/11/21 02:31:20;;;;;;;4.03;2.00;;;;;;;9.92;75.15;100074.41;1719903;83;21125;-72
2021/11/21 02:33:49;;;;;;;5.72;2.25;;;;;;;9.89;75.21;100080.52;1720205;83;21106;-71
2021/11/21 02:36:15;;;;;;;6.35;2.58;;;;;;;9.88;75.28;100071.28;1720279;83;21114;-71
2021/11/21 02:38:42;;;;;;;6.85;2.72;;;;;;;9.87;75.36;100070.41;1720472;83;21780;-71
2021/11/21 02:41:09;;;;;;;5.92;2.27;;;;;;;9.85;75.33;100059.39;1720120;83;21062;-72
2021/11/21 02:43:36;;;;;;;5.33;2.10;;;;;;;9.84;75.29;100061.14;1720246;83;21114;-72
2021/11/21 02:46:04;;;;;;;4.95;2.27;;;;;;;9.83;75.30;100056.73;1727333;81;21055;-72
2021/11/21 02:48:32;;;;;;;7.45;2.30;;;;;;;9.84;75.36;100055.01;1753046;81;21070;-72
2021/11/21 02:51:00;;;;;;;9.53;2.75;;;;;;;9.83;75.40;100047.53;1753042;81;22953;-72
2021/11/21 02:53:28;;;;;;;5.55;2.00;;;;;;;9.86;75.41;100046.72;1753286;81;21133;-72
2021/11/21 02:55:56;;;;;;;6.92;2.60;;;;;;;9.88;75.34;100046.31;1753258;81;21304;-72
2021/11/21 02:58:25;;;;;;;4.45;2.17;;;;;;;9.89;75.29;100049.38;1753247;81;21149;-72
2021/11/21 03:00:52;;;;;;;6.85;2.27;;;;;;;9.91;75.33;100046.38;1752309;81;21145;-72
2021/11/21 03:03:19;;;;;;;7.20;2.05;;;;;;;9.92;75.26;100045.05;1753117;81;22381;-72
2021/11/21 03:05:46;;;;;;;6.12;2.30;;;;;;;9.95;75.23;100045.55;1725535;81;21117;-72
2021/11/21 03:08:12;;;;;;;4.62;1.75;;;;;;;9.96;75.21;100047.31;1753084;81;21126;-72
2021/11/21 03:10:39;;;;;;;5.53;2.10;;;;;;;9.97;75.20;100041.20;1753325;81;21090;-72
2021/11/21 03:13:06;;;;;;;4.20;2.02;;;;;;;9.99;75.15;100040.80;1753066;81;21077;-72
2021/11/21 03:15:33;;;;;;;8.98;2.10;;;;;;;10.00;75.12;100044.30;1753085;81;21943;-72
2021/11/21 03:18:01;;;;;;;7.37;2.35;;;;;;;10.00;75.14;100037.73;1752994;81;21061;-72
2021/11/21 03:20:30;;;;;;;3.83;2.00;;;;;;;10.01;75.13;100035.12;1753121;81;21699;-72
2021/11/21 03:22:57;;;;;;;6.30;2.20;;;;;;;10.03;75.09;100036.47;1753228;81;21106;-71
2021/11/21 03:25:24;;;;;;;6.92;2.30;;;;;;;10.02;75.09;100029.43;1752925;81;21105;-72
2021/11/21 03:27:50;;;;;;;6.70;2.27;;;;;;;10.02;75.08;100033.37;1753103;81;21752;-72
2021/11/21 03:30:21;;;;;;;8.95;2.10;;;;;;;10.02;75.11;100032.06;1753069;81;21106;-72
2021/11/21 03:32:48;;;;;;;5.47;2.30;;;;;;;10.01;75.11;100021.98;1753178;81;21106;-72
2021/11/21 03:35:15;;;;;;;5.22;2.02;;;;;;;10.01;75.10;100021.98;1753144;81;21431;-72
2021/11/21 03:37:41;;;;;;;4.50;1.98;;;;;;;10.00;75.06;100018.01;1753239;81;21616;-72
2021/11/21 03:40:11;;;;;;;3.60;2.20;;;;;;;9.98;75.10;100017.98;1753139;81;21753;-72
2021/11/21 03:42:38;;;;;;;6.80;2.47;;;;;;;9.97;75.11;100016.67;1753189;81;21058;-72
2021/11/21 03:45:07;;;;;;;5.60;1.80;;;;;;;9.98;75.18;100021.05;1753182;81;21053;-72
2021/11/21 03:47:34;;;;;;;2.77;1.90;;;;;;;9.97;75.12;100004.84;1752586;81;21572;-72
2021/11/21 03:50:00;;;;;;;5.35;1.98;;;;;;;9.97;75.10;100004.40;1752883;81;21317;-72
2021/11/21 03:52:27;;;;;;;5.60;1.70;;;;;;;9.98;75.16;99998.27;1752694;81;22543;-72
2021/11/21 03:54:54;;;;;;;5.20;2.00;;;;;;;9.99;75.06;99999.17;1752813;81;21612;-72
2021/11/21 03:57:21;;;;;;;6.10;1.60;;;;;;;9.98;75.00;100002.64;1753023;81;21121;-72
2021/11/21 03:59:47;;;;;;;5.05;1.65;;;;;;;9.99;74.99;99994.78;1752986;81;21477;-72
2021/11/21 04:02:14;;;;;;;3.85;1.75;;;;;;;10.00;74.88;100000.92;1753052;81;21127;-72
2021/11/21 04:04:40;;;;;;;8.20;2.08;;;;;;;10.00;74.81;99996.98;1752920;81;21757;-72
2021/11/21 04:07:07;;;;;;;5.62;1.55;;;;;;;9.99;74.79;99998.73;1752832;81;21003;-72
2021/11/21 04:09:34;;;;;;;4.55;1.42;;;;;;;9.97;74.72;99998.27;1752928;81;21695;-72
2021/11/21 04:12:00;;;;;;;2.98;1.25;;;;;;;9.96;74.74;99998.67;1752864;81;21050;-71
2021/11/21 04:14:27;;;;;;;4.62;1.62;;;;;;;9.97;74.67;99990.38;1752942;81;21519;-71
2021/11/21 04:16:54;;;;;;;6.30;1.60;;;;;;;9.96;74.64;99985.97;1752870;81;22563;-71
2021/11/21 04:19:20;;;;;;;5.00;1.30;;;;;;;9.95;74.58;99990.75;1752723;81;21126;-72
2021/11/21 04:21:53;;;;;;;3.92;1.27;;;;;;;9.95;74.55;99991.66;1752855;81;21012;-72
2021/11/21 04:24:22;;;;;;;4.53;1.32;;;;;;;9.96;74.57;99985.97;1749979;81;21089;-72
2021/11/21 04:26:49;;;;;;;3.08;1.17;;;;;;;9.97;74.55;99989.94;1753077;81;21575;-72
2021/11/21 04:29:15;;;;;;;2.75;1.50;;;;;;;9.99;74.61;99987.34;1753072;81;21750;-72
2021/11/21 04:31:42;;;;;;;3.02;1.35;;;;;;;10.01;74.64;99986.93;1752871;81;21568;-72
2021/11/21 04:34:08;;;;;;;5.05;1.70;;;;;;;10.01;74.58;99985.17;1752834;81;21129;-72
2021/11/21 04:36:35;;;;;;;4.10;1.45;;;;;;;9.96;74.63;99972.82;1752787;81;21094;-72
2021/11/21 04:39:04;;;;;;;2.95;1.50;;;;;;;10.02;74.65;99981.70;1752939;81;21082;-72
2021/11/21 04:41:31;;;;;;;2.95;1.20;;;;;;;10.03;74.70;99979.94;1752726;81;22608;-72
2021/11/21 04:43:57;;;;;;;4.22;1.80;;;;;;;10.03;74.68;99975.56;1752705;81;21117;-72
2021/11/21 04:46:25;;;;;;;4.60;2.05;;;;;;;10.01;74.66;99968.09;1751111;81;21121;-72
2021/11/21 04:48:52;;;;;;;6.70;1.50;;;;;;;10.02;74.72;99970.27;1738288;81;21409;-72
2021/11/21 04:51:18;;;;;;;4.50;1.37;;;;;;;10.02;74.76;99968.55;1737796;82;21106;-72
2021/11/21 04:53:45;;;;;;;2.98;1.37;;;;;;;10.01;74.79;99970.72;1737754;82;22270;-72
2021/11/21 04:56:12;;;;;;;4.22;2.05;;;;;;;10.02;74.84;99969.87;1737863;82;21055;-72
2021/11/21 04:58:38;;;;;;;4.80;1.32;;;;;;;10.01;74.90;99968.52;1737762;82;21055;-72
2021/11/21 05:01:05;;;;;;;3.20;1.42;;;;;;;10.01;74.94;99969.40;1737791;82;21070;-72
2021/11/21 05:03:32;;;;;;;2.75;1.30;;;;;;;10.00;74.97;99970.69;1737789;81;21533;-72
2021/11/21 05:05:59;;;;;;;7.17;1.47;;;;;;;9.98;75.02;99963.20;1737778;82;21781;-72
2021/11/21 05:08:25;;;;;;;4.50;1.52;;;;;;;9.95;75.05;99960.11;1737681;82;21584;-72
2021/11/21 05:10:52;;;;;;;2.72;1.60;;;;;;;9.92;75.13;99955.67;1737765;82;21392;-72
2021/11/21 05:13:18;;;;;;;2.12;1.25;;;;;;;9.89;75.21;99954.34;1737703;82;21597;-72
2021/11/21 05:15:45;;;;;;;6.95;1.62;;;;;;;9.89;75.30;99950.39;1737789;82;21066;-72
2021/11/21 05:18:12;;;;;;;3.05;1.27;;;;;;;9.87;75.33;99953.84;1737751;82;21683;-72
2021/11/21 05:20:39;;;;;;;5.25;1.20;;;;;;;9.86;75.45;99945.08;1737780;82;21388;-72
2021/11/21 05:23:05;;;;;;;2.72;1.37;;;;;;;9.85;75.45;99941.11;1737807;82;21239;-72
2021/11/21 05:25:32;;;;;;;3.60;1.55;;;;;;;9.81;75.50;99941.48;1737781;82;21122;-72
2021/11/21 05:27:58;;;;;;;3.45;1.67;;;;;;;9.79;75.61;99940.59;1738079;82;21118;-72
2021/11/21 05:30:25;;;;;;;3.52;1.72;;;;;;;9.79;75.73;99934.02;1738183;82;21779;-72
2021/11/21 05:32:52;;;;;;;5.22;1.77;;;;;;;9.77;75.72;99933.55;1738166;82;21134;-72
2021/11/21 05:35:19;;;;;;;1.87;1.20;;;;;;;9.75;75.86;99937.46;1738050;82;21110;-71
2021/11/21 05:37:48;;;;;;;2.02;1.50;;;;;;;9.76;75.95;99937.02;1738473;82;21071;-71
2021/11/21 05:40:15;;;;;;;1.98;1.30;;;;;;;9.76;76.02;99931.36;1738355;81;21349;-72
2021/11/21 05:42:42;;;;;;;2.22;1.17;;;;;;;9.76;75.99;99935.70;1738197;82;21755;-71
2021/11/21 05:45:08;;;;;;;2.77;1.57;;;;;;;9.75;76.07;99926.08;1738166;82;21070;-72
2021/11/21 05:47:35;;;;;;;2.05;1.22;;;;;;;9.74;76.13;99926.48;1741081;81;21082;-72
2021/11/21 05:50:03;;;;;;;1.10;0.80;;;;;;;9.75;76.21;99918.19;1745073;82;21086;-72
2021/11/21 05:52:29;;;;;;;3.87;1.40;;;;;;;9.76;76.25;99919.53;1745009;82;21119;-72
2021/11/21 05:54:56;;;;;;;1.98;1.30;;;;;;;9.77;76.24;99923.03;1744670;82;21725;-72
2021/11/21 05:57:22;;;;;;;2.27;1.20;;;;;;;9.76;76.29;99921.25;1744706;82;21066;-72
2021/11/21 05:59:49;;;;;;;1.40;0.82;;;;;;;9.75;76.33;99915.56;1744921;82;21099;-72
2021/11/21 06:02:19;;;;;;;1.35;0.98;;;;;;;9.74;76.37;99918.59;1745020;82;21086;-72
2021/11/21 06:04:46;;;;;;;2.33;0.90;;;;;;;9.74;76.46;99918.59;1744751;82;21062;-72
2021/11/21 06:07:12;;;;;;;2.45;1.00;;;;;;;9.75;76.49;99911.19;1744570;82;21858;-71
2021/11/21 06:09:39;;;;;;;2.85;0.85;;;;;;;9.77;76.54;99914.72;1744785;82;21082;-72
2021/11/21 06:12:07;;;;;;;1.60;1.00;;;;;;;9.77;76.54;99911.21;1744790;82;21078;-72
2021/11/21 06:14:33;;;;;;;1.10;1.00;;;;;;;9.76;76.56;99922.16;1744750;82;21075;-72
2021/11/21 06:17:00;;;;;;;3.02;1.20;;;;;;;9.74;76.61;99909.41;1744795;82;21091;-72
2021/11/21 06:19:27;;;;;;;1.67;0.90;;;;;;;9.72;76.67;99904.55;1744781;82;21741;-73
2021/11/21 06:21:54;;;;;;;2.67;1.10;;;;;;;9.73;76.70;99908.97;1744898;82;21616;-71
2021/11/21 06:24:20;;;;;;;3.42;1.10;;;;;;;9.75;76.75;99915.56;1744879;82;21106;-72
2021/11/21 06:26:47;;;;;;;2.45;1.25;;;;;;;9.77;76.81;99912.53;1744909;82;21073;-71
2021/11/21 06:29:13;;;;;;;1.85;0.98;;;;;;;9.77;76.82;99906.83;1744988;82;21067;-72
2021/11/21 06:31:41;;;;;;;1.85;0.98;;;;;;;9.77;76.80;99902.89;1744791;82;21715;-71
2021/11/21 06:34:08;;;;;;;1.17;0.90;;;;;;;9.78;76.80;99910.33;1744645;82;21115;-71
2021/11/21 06:36:36;;;;;;;2.75;1.25;;;;;;;9.79;76.87;99905.11;1711285;82;21556;-73
2021/11/21 06:39:03;;;;;;;2.00;0.90;;;;;;;9.79;76.90;99903.79;1744785;82;21046;-72
2021/11/21 06:41:30;;;;;;;1.00;0.85;;;;;;;9.81;76.87;99902.06;1744862;82;21089;-72
2021/11/21 06:43:56;;;;;;;1.15;0.78;;;;;;;9.81;76.88;99899.44;1745044;82;21910;-72
2021/11/21 06:46:24;;;;;;;2.55;0.90;;;;;;;9.82;76.88;99902.97;1744768;82;21543;-72
2021/11/21 06:48:51;;;;;;;1.07;0.70;;;;;;;9.82;76.88;99903.84;1744530;81;21130;-72
2021/11/21 06:51:18;;;;;;;0.90;0.80;;;;;;;9.83;76.92;99900.34;1743248;82;21147;-72
2021/11/21 06:53:47;;;;;;;1.17;0.90;;;;;;;9.84;76.94;99903.88;1744769;82;21000;-72
2021/11/21 06:56:15;;;;;;;0.93;0.80;;;;;;;9.84;76.93;99902.13;1744304;82;21754;-71
2021/11/21 06:58:42;;;;;;;1.22;0.93;;;;;;;9.85;76.96;99892.48;1744853;82;21066;-72
2021/11/21 07:01:08;;;;;;;0.98;0.90;;;;;;;9.86;76.99;99897.77;1744823;82;21074;-72
2021/11/21 07:03:35;;;;;;;2.50;0.80;;;;;;;9.88;77.01;99899.11;1744676;82;21075;-72
2021/11/21 07:06:02;;;;;;;1.32;1.10;;;;;;;9.91;77.06;99889.96;1744985;82;21090;-72
2021/11/21 07:08:31;;;;;;;1.17;0.95;;;;;;;9.95;77.02;99888.23;1744731;81;21724;-72
2021/11/21 07:10:57;;;;;;;2.12;1.27;;;;;;;9.95;77.04;99889.55;1744793;82;21196;-72
2021/11/21 07:13:24;;;;;;;2.02;0.90;;;;;;;9.97;77.03;99890.48;1744848;82;21129;-71
2021/11/21 07:15:51;;;;;;;1.95;1.42;;;;;;;9.98;77.05;99885.21;1744917;82;21050;-72
2021/11/21 07:18:18;;;;;;;1.92;0.90;;;;;;;10.01;77.02;99881.77;1744655;81;21102;-72
2021/11/21 07:20:45;;;;;;;3.67;3.33;;;;;;;10.02;77.03;99884.83;1744942;82;21750;-72
2021/11/21 07:23:17;;;;;;;12.65;9.50;;;;;;;10.05;77.02;99887.51;1744680;82;21016;-72
2021/11/21 07:25:40;;;;;;;7.55;6.62;;;;;;;10.08;76.99;99888.44;1743701;81;21075;-72
2021/11/21 07:28:07;;;;;;;3.50;2.72;;;;;;;10.11;76.96;99887.58;1744810;82;21050;-72
2021/11/21 07:30:33;;;;;;;7.50;6.15;;;;;;;10.14;76.99;99898.14;1744986;82;21054;-72
2021/11/21 07:33:00;;;;;;;12.70;8.73;;;;;;;10.17;76.97;99895.98;1744852;82;22559;-71
2021/11/21 07:35:27;;;;;;;15.38;10.55;;;;;;;10.20;76.95;99898.66;1744647;82;21608;-72
2021/11/21 07:37:54;;;;;;;7.35;3.52;;;;;;;10.22;76.95;99908.32;1744827;82;21137;-72
2021/11/21 07:40:21;;;;;;;6.67;3.52;;;;;;;10.24;76.86;99905.72;1744179;82;21059;-72
2021/11/21 07:42:48;;;;;;;3.67;2.40;;;;;;;10.24;76.88;99907.91;1744674;82;21091;-71
2021/11/21 07:45:14;;;;;;;1.55;1.40;;;;;;;10.24;76.77;99900.45;1744723;82;21747;-72
2021/11/21 07:47:42;;;;;;;3.50;2.83;;;;;;;10.25;76.82;99903.55;1745977;81;21054;-72
2021/11/21 07:50:09;;;;;;;3.75;2.50;;;;;;;10.29;76.85;99904.03;1752143;81;21460;-72
2021/11/21 07:52:36;;;;;;;6.17;4.83;;;;;;;10.22;76.77;99891.23;1752916;81;21102;-71
2021/11/21 07:55:02;;;;;;;6.67;5.92;;;;;;;10.39;76.89;99918.22;1752931;81;21222;-72
2021/11/21 07:57:29;;;;;;;8.15;6.08;;;;;;;10.41;76.91;99915.17;1752241;81;21875;-72
2021/11/21 07:59:56;;;;;;;5.08;4.62;;;;;;;10.43;76.90;99912.99;1752619;81;21110;-72
2021/11/21 08:02:23;;;;;;;5.85;3.50;;;;;;;10.47;76.86;99922.72;1752529;81;21445;-72
2021/11/21 08:04:49;;;;;;;3.92;3.52;;;;;;;10.48;76.85;99924.47;1752400;81;21098;-72
2021/11/21 08:07:16;;;;;;;3.92;3.60;;;;;;;10.52;76.83;99925.39;1752659;81;21125;-72
2021/11/21 08:09:43;;;;;;;2.92;2.12;;;;;;;10.56;76.83;99926.31;1752531;81;21892;-72
2021/11/21 08:12:10;;;;;;;3.58;1.75;;;;;;;10.61;76.62;99931.20;1752567;81;21118;-72
2021/11/21 08:14:38;;;;;;;2.22;1.10;;;;;;;10.62;76.55;99935.17;1752472;81;21137;-72
2021/11/21 08:17:05;;;;;;;1.72;1.45;;;;;;;10.66;76.45;99943.55;1752829;81;21050;-72
2021/11/21 08:19:31;;;;;;;3.33;3.02;;;;;;;10.71;76.38;99940.95;1752332;81;21085;-72
2021/11/21 08:21:58;;;;;;;3.92;2.95;;;;;;;10.76;76.36;99939.71;1752530;81;21710;-72
2021/11/21 08:24:25;;;;;;;3.25;2.77;;;;;;;10.79;76.26;99930.10;1752485;81;21157;-72
2021/11/21 08:26:52;;;;;;;5.42;4.92;;;;;;;10.84;76.17;99932.77;1752605;81;20996;-72
2021/11/21 08:29:19;;;;;;;3.20;2.75;;;;;;;10.85;75.97;99939.81;1752398;81;21124;-72
2021/11/21 08:31:47;;;;;;;2.65;2.45;;;;;;;10.83;75.82;99938.88;1746537;81;21079;-72
2021/11/21 08:34:14;;;;;;;4.90;4.40;;;;;;;10.81;75.75;99947.20;1722964;83;21777;-78
2021/11/21 08:36:40;;;;;;;3.05;2.17;;;;;;;10.78;75.61;99948.50;1722880;83;21090;-78
2021/11/21 08:39:09;;;;;;;6.40;4.62;;;;;;;10.75;75.64;99954.59;1722445;83;21056;-72
2021/11/21 08:41:36;;;;;;;8.05;5.87;;;;;;;10.76;75.74;99948.92;1722846;83;21537;-71
2021/11/21 08:44:03;;;;;;;3.75;2.83;;;;;;;10.74;75.55;99951.53;1722631;83;21348;-72
2021/11/21 08:46:29;;;;;;;3.98;2.67;;;;;;;10.70;75.55;99954.56;1722524;83;21759;-71
2021/11/21 08:48:58;;;;;;;6.20;3.05;;;;;;;10.67;75.48;99957.14;1722282;83;21142;-71
2021/11/21 08:51:24;;;;;;;3.05;1.90;;;;;;;10.66;75.52;99965.02;1722525;83;21093;-72
2021/11/21 08:53:51;;;;;;;2.62;2.42;;;;;;;10.65;75.62;99956.25;1722416;81;21064;-71
2021/11/21 08:56:18;;;;;;;4.45;1.70;;;;;;;10.64;75.67;99966.34;1722613;83;21017;-71
2021/11/21 08:58:45;;;;;;;3.02;2.27;;;;;;;10.66;75.78;99972.50;1722028;83;21860;-71
2021/11/21 09:01:11;;;;;;;7.95;4.72;;;;;;;10.68;75.82;99957.61;1722483;83;21255;-71
2021/11/21 09:03:41;;;;;;;3.27;2.85;;;;;;;10.68;75.77;99960.69;1722504;83;21099;-71
2021/11/21 09:06:08;;;;;;;5.78;3.98;;;;;;;10.68;75.81;99959.36;1722743;83;21059;-71
2021/11/21 09:08:34;;;;;;;2.52;2.00;;;;;;;10.68;75.85;99953.66;1722521;83;21075;-71
2021/11/21 09:11:01;;;;;;;2.95;2.05;;;;;;;10.70;75.89;99961.58;1722652;83;21773;-71
2021/11/21 09:13:28;;;;;;;1.52;1.10;;;;;;;10.72;75.88;99965.52;1722621;83;21347;-71
2021/11/21 09:15:55;;;;;;;2.50;1.20;;;;;;;10.72;75.96;99973.41;1722753;83;21151;-72
2021/11/21 09:18:24;;;;;;;1.62;1.40;;;;;;;10.72;75.95;99972.10;1722855;83;21147;-71
2021/11/21 09:20:50;;;;;;;4.25;1.20;;;;;;;10.71;75.98;99989.65;1722786;83;21573;-73
2021/11/21 09:23:19;;;;;;;2.72;1.37;;;;;;;10.70;76.01;99990.09;1722940;83;22549;-72
2021/11/21 09:25:46;;;;;;;2.12;1.27;;;;;;;10.73;75.89;99991.87;1722809;83;21088;-73
2021/11/21 09:28:12;;;;;;;1.95;1.40;;;;;;;10.81;76.02;99992.86;1722708;83;21549;-73
2021/11/21 09:30:39;;;;;;;1.92;1.50;;;;;;;10.91;75.95;99999.11;1693780;83;21144;-75
2021/11/21 09:33:06;;;;;;;3.50;1.35;;;;;;;11.01;75.73;99998.34;1722699;83;21095;-72
2021/11/21 09:35:33;;;;;;;4.17;1.70;;;;;;;11.08;75.26;99996.66;1722556;83;21944;-71
2021/11/21 09:37:59;;;;;;;2.62;1.32;;;;;;;11.11;74.92;99998.00;1722743;83;21502;-71
2021/11/21 09:40:30;;;;;;;5.12;2.58;;;;;;;11.15;74.84;99994.97;1722992;83;21087;-71
2021/11/21 09:42:55;;;;;;;3.40;1.82;;;;;;;11.20;74.53;99985.36;1722110;83;21084;-71
2021/11/21 09:45:21;;;;;;;6.55;2.33;;;;;;;11.23;74.31;99991.99;1722857;83;21656;-71
2021/11/21 09:47:57;;;;;;;4.33;2.77;;;;;;;11.26;74.12;99982.38;1722604;83;22635;-72
2021/11/21 09:50:24;;;;;;;3.70;2.17;;;;;;;11.31;74.06;99989.44;1683434;83;21079;-71
2021/11/21 09:52:51;;;;;;;4.83;1.85;;;;;;;11.39;73.94;99993.02;1715139;83;21087;-72
2021/11/21 09:55:17;;;;;;;5.33;2.20;;;;;;;11.44;73.58;100002.73;1715186;83;21057;-71
2021/11/21 09:57:44;;;;;;;6.22;2.10;;;;;;;11.51;73.57;100002.37;1715123;83;21084;-71
2021/11/21 10:00:16;;;;;;;4.28;2.83;;;;;;;11.56;73.25;99998.44;1715109;83;21761;-71
2021/11/21 10:02:51;;;;;;;9.33;3.25;;;;;;;11.61;73.15;100000.69;1714933;83;21076;-71
2021/11/21 10:05:28;;;;;;;3.05;1.87;;;;;;;11.67;73.01;100011.27;1714052;83;21220;-71
2021/11/21 10:08:11;;;;;;;3.27;2.00;;;;;;;11.75;72.89;100003.42;1713688;83;21067;-72
2021/11/21 10:10:48;;;;;;;4.33;2.05;;;;;;;11.79;72.72;100006.12;1713757;83;21099;-72
2021/11/21 10:13:40;;;;;;;4.28;2.10;;;;;;;11.87;72.53;100015.41;1715166;83;21764;-71
2021/11/21 10:16:28;;;;;;;6.42;2.65;;;;;;;11.93;72.49;100019.87;1714978;83;21077;-71
2021/11/21 10:19:07;;;;;;;5.20;1.77;;;;;;;11.93;72.31;100023.39;1714981;83;21088;-72
2021/11/21 10:21:51;;;;;;;3.47;2.08;;;;;;;11.94;72.21;100022.98;1715088;83;21091;-71
2021/11/21 10:24:28;;;;;;;7.85;2.75;;;;;;;11.85;71.79;100029.02;1715090;83;21073;-72
2021/11/21 10:27:10;;;;;;;6.62;2.40;;;;;;;11.67;71.80;100021.82;1715198;83;22440;-72
2021/11/21 10:29:40;;;;;;;9.53;5.22;;;;;;;11.59;71.84;100011.66;1715107;83;21342;-72
2021/11/21 10:32:22;;;;;;;5.25;2.58;;;;;;;11.55;71.98;100011.19;1715163;83;21131;-72
2021/11/21 10:35:01;;;;;;;5.50;2.15;;;;;;;11.57;72.00;100010.77;1715071;83;21124;-72
2021/11/21 10:37:30;;;;;;;7.78;2.35;;;;;;;11.54;71.81;100012.91;1715128;83;21764;-72
2021/11/21 10:40:11;;;;;;;4.72;2.80;;;;;;;11.51;71.68;100016.86;1715326;83;21776;-72
2021/11/21 10:42:40;;;;;;;5.40;2.27;;;;;;;11.46;71.65;100023.39;1713942;83;21084;-72
2021/11/21 10:45:08;;;;;;;6.97;2.30;;;;;;;11.38;71.40;100030.34;1715132;83;21092;-72
2021/11/21 10:47:50;;;;;;;7.10;2.45;;;;;;;11.26;71.20;100023.20;1715023;83;21142;-72
2021/11/21 10:50:38;;;;;;;5.58;2.17;;;;;;;11.16;71.32;100033.63;1677370;84;21183;-72
2021/11/21 10:53:08;;;;;;;5.55;2.00;;;;;;;11.09;71.18;100037.52;1677872;85;21998;-72
2021/11/21 10:55:36;;;;;;;6.87;2.17;;;;;;;10.97;70.93;100045.70;1678001;85;21111;-72
2021/11/21 10:58:14;;;;;;;6.60;2.60;;;;;;;10.89;71.15;100050.87;1678158;85;21131;-71
2021/11/21 11:00:42;;;;;;;7.08;2.83;;;;;;;10.92;71.17;100043.43;1678135;85;21139;-72
2021/11/21 11:03:21;;;;;;;9.60;3.62;;;;;;;10.98;71.28;100039.55;1678392;85;21704;-71
2021/11/21 11:05:47;;;;;;;8.15;2.27;;;;;;;11.02;70.86;100047.96;1678157;85;21926;-72
2021/11/21 11:08:26;;;;;;;5.85;2.35;;;;;;;11.03;70.45;100056.30;1677889;85;21045;-71
2021/11/21 11:10:52;;;;;;;5.65;2.22;;;;;;;10.94;70.27;100060.13;1676543;85;21116;-80
2021/11/21 11:13:19;;;;;;;6.25;2.92;;;;;;;10.97;70.31;100069.39;1677717;85;21111;-80
2021/11/21 11:15:46;;;;;;;7.35;2.30;;;;;;;10.96;70.20;100066.30;1678176;85;21142;-82
2021/11/21 11:18:15;;;;;;;6.67;2.85;;;;;;;11.01;70.33;100069.88;1691715;83;21834;-83
2021/11/21 11:20:47;;;;;;;5.28;2.30;;;;;;;11.07;70.15;100065.59;1688530;84;21169;-80
2021/11/21 11:23:21;;;;;;;5.80;2.47;;;;;;;11.09;70.16;100073.06;1688547;84;21123;-82
2021/11/21 11:25:46;;;;;;;9.68;2.33;;;;;;;11.17;70.12;100070.52;1665108;84;21801;-82
2021/11/21 11:28:24;;;;;;;4.80;2.35;;;;;;;11.27;69.87;100068.88;1709306;83;21079;-81
2021/11/21 11:30:51;;;;;;;10.10;2.33;;;;;;;11.33;69.69;100076.83;1713543;83;23047;-82
2021/11/21 11:33:23;;;;;;;6.05;2.45;;;;;;;11.37;69.53;100069.84;1713345;83;21716;-82
2021/11/21 11:35:56;;;;;;;7.62;2.65;;;;;;;11.40;69.36;100080.44;1713684;83;21090;-82
2021/11/21 11:38:31;;;;;;;8.98;3.47;;;;;;;11.35;69.16;100068.95;1713874;83;21135;-81